< < Back
Terminal Aerodrome Forecast


Current Version              Previous Versions:   1  2  3  4  5  6  7  8  9  

Terminal Aerodrome Forecast

206
FTUS42 KCAE 032320
TAFAGS
TAF
KAGS 032320Z 0400/0424 VRB04KT P6SM SCT050
     FM040900 00000KT 1SM BR OVC006
     FM041400 VRB05KT P6SM SCT040=

Latest METAR

977
SAUS70 KWBC 040500 RRD
MTRAGS
METAR KAGS 040453Z AUTO 00000KT 10SM CLR 23/22 A2993 RMK AO2 SLP135
T02280222 403390217


USA.gov is the U.S. government's official web portal to all federal, state and local government web resources and services.